EWG6AT EGCC-EDDL
Flight info
| Callsign | EWG6AT |
|---|---|
| Flight time | 0h 59m |
| Altitude | 33000 |
| Route | DESIG L603 LAMSO/N0446F350 DCT EVELI DCT PAM P62 PISAP PISAP1A |
| Aircraft | A320/M-SDE3FGHIRWY/LB1 |
Departure
| Time | 2026-05-06 17:25 |
|---|---|
| Airport | Manchester Airport (EGCC) |
Arrival
| Time | 2026-05-06 18:24 |
|---|---|
| Airport | Düsseldorf Airport (EDDL) |
| Time | Latitude | Longitude | Altitude | Speed | Heading |
|---|---|---|---|---|---|
| 2026-05-06 16:59 | 53.36836 | -2.28882 | 255 ft | 0 kts | 135° |
| 2026-05-06 17:13 | 53.36844 | -2.28897 | 255 ft | 4 kts | 135° |
| 2026-05-06 17:13 | 53.36860 | -2.28924 | 255 ft | 4 kts | 148° |
| 2026-05-06 17:13 | 53.36876 | -2.28925 | 255 ft | 4 kts | 224° |
| 2026-05-06 17:14 | 53.36881 | -2.28917 | 255 ft | 4 kts | 225° |
| 2026-05-06 17:14 | 53.36868 | -2.28938 | 255 ft | 0 kts | 225° |
| 2026-05-06 17:16 | 53.36867 | -2.28940 | 255 ft | 2 kts | 224° |
| 2026-05-06 17:16 | 53.36834 | -2.28993 | 255 ft | 11 kts | 223° |
| 2026-05-06 17:17 | 53.36768 | -2.29038 | 255 ft | 9 kts | 189° |
| 2026-05-06 17:17 | 53.36718 | -2.28992 | 255 ft | 8 kts | 136° |
| 2026-05-06 17:17 | 53.36664 | -2.28909 | 255 ft | 13 kts | 148° |
| 2026-05-06 17:17 | 53.36591 | -2.28810 | 255 ft | 14 kts | 118° |
| 2026-05-06 17:18 | 53.36528 | -2.28670 | 255 ft | 16 kts | 135° |
| 2026-05-06 17:18 | 53.36446 | -2.28532 | 255 ft | 18 kts | 135° |
| 2026-05-06 17:18 | 53.36334 | -2.28447 | 255 ft | 18 kts | 142° |
| 2026-05-06 17:18 | 53.36240 | -2.28293 | 255 ft | 20 kts | 140° |
| 2026-05-06 17:19 | 53.36143 | -2.28129 | 255 ft | 20 kts | 138° |
| 2026-05-06 17:19 | 53.36051 | -2.27990 | 255 ft | 12 kts | 136° |
| 2026-05-06 17:19 | 53.36004 | -2.27916 | 255 ft | 6 kts | 136° |
| 2026-05-06 17:19 | 53.35973 | -2.27872 | 255 ft | 6 kts | 145° |
| 2026-05-06 17:20 | 53.35931 | -2.27855 | 255 ft | 6 kts | 173° |
| 2026-05-06 17:20 | 53.35873 | -2.27854 | 254 ft | 13 kts | 184° |
| 2026-05-06 17:20 | 53.35773 | -2.27870 | 249 ft | 16 kts | 186° |
| 2026-05-06 17:20 | 53.35647 | -2.27892 | 242 ft | 21 kts | 186° |
| 2026-05-06 17:21 | 53.35496 | -2.27918 | 240 ft | 18 kts | 187° |
| 2026-05-06 17:21 | 53.35386 | -2.28033 | 237 ft | 19 kts | 220° |
| 2026-05-06 17:21 | 53.35289 | -2.28194 | 232 ft | 21 kts | 224° |
| 2026-05-06 17:21 | 53.35194 | -2.28381 | 230 ft | 22 kts | 232° |
| 2026-05-06 17:22 | 53.35107 | -2.28567 | 228 ft | 16 kts | 231° |
| 2026-05-06 17:22 | 53.35039 | -2.28700 | 228 ft | 15 kts | 226° |
| 2026-05-06 17:22 | 53.34967 | -2.28825 | 226 ft | 15 kts | 225° |
| 2026-05-06 17:22 | 53.34893 | -2.28953 | 223 ft | 16 kts | 225° |
| 2026-05-06 17:23 | 53.34806 | -2.29062 | 226 ft | 12 kts | 198° |
| 2026-05-06 17:23 | 53.34725 | -2.29056 | 227 ft | 12 kts | 156° |
| 2026-05-06 17:23 | 53.34672 | -2.28965 | 222 ft | 8 kts | 92° |
| 2026-05-06 17:23 | 53.34692 | -2.28907 | 220 ft | 4 kts | 52° |
| 2026-05-06 17:24 | 53.34778 | -2.28729 | 227 ft | 51 kts | 51° |
| 2026-05-06 17:24 | 53.35145 | -2.27970 | 233 ft | 114 kts | 51° |
| 2026-05-06 17:24 | 53.35752 | -2.26713 | 295 ft | 159 kts | 51° |
| 2026-05-06 17:24 | 53.36233 | -2.25756 | 636 ft | 164 kts | 51° |
| 2026-05-06 17:25 | 53.36979 | -2.24288 | 1371 ft | 167 kts | 52° |
| 2026-05-06 17:25 | 53.37762 | -2.22673 | 1557 ft | 195 kts | 52° |
| 2026-05-06 17:25 | 53.38633 | -2.20791 | 1943 ft | 217 kts | 54° |
| 2026-05-06 17:25 | 53.39601 | -2.18633 | 2345 ft | 244 kts | 54° |
| 2026-05-06 17:26 | 53.40645 | -2.16312 | 3164 ft | 253 kts | 54° |
| 2026-05-06 17:26 | 53.41732 | -2.13957 | 4111 ft | 257 kts | 52° |
| 2026-05-06 17:26 | 53.42864 | -2.11589 | 4871 ft | 264 kts | 51° |
| 2026-05-06 17:26 | 53.44036 | -2.09175 | 5766 ft | 268 kts | 50° |
| 2026-05-06 17:27 | 53.45214 | -2.06740 | 6700 ft | 270 kts | 50° |
| 2026-05-06 17:27 | 53.46388 | -2.04242 | 7560 ft | 276 kts | 50° |
| 2026-05-06 17:27 | 53.47579 | -2.01669 | 8406 ft | 280 kts | 50° |
| 2026-05-06 17:27 | 53.48794 | -1.99060 | 9209 ft | 288 kts | 50° |
| 2026-05-06 17:28 | 53.50039 | -1.96400 | 10069 ft | 291 kts | 49° |
| 2026-05-06 17:28 | 53.51400 | -1.93768 | 10514 ft | 308 kts | 38° |
| 2026-05-06 17:28 | 53.53262 | -1.91932 | 10962 ft | 321 kts | 28° |
| 2026-05-06 17:28 | 53.55075 | -1.89475 | 11339 ft | 342 kts | 46° |
| 2026-05-06 17:29 | 53.56354 | -1.86065 | 11770 ft | 359 kts | 68° |
| 2026-05-06 17:29 | 53.56824 | -1.81913 | 12413 ft | 367 kts | 90° |
| 2026-05-06 17:29 | 53.56330 | -1.77689 | 13097 ft | 373 kts | 113° |
| 2026-05-06 17:29 | 53.54929 | -1.74015 | 13791 ft | 377 kts | 130° |
| 2026-05-06 17:30 | 53.53239 | -1.70609 | 14441 ft | 381 kts | 130° |
| 2026-05-06 17:30 | 53.51518 | -1.67191 | 15095 ft | 384 kts | 131° |
| 2026-05-06 17:30 | 53.49781 | -1.63751 | 15736 ft | 388 kts | 131° |
| 2026-05-06 17:30 | 53.48153 | -1.60120 | 16354 ft | 392 kts | 122° |
| 2026-05-06 17:31 | 53.46908 | -1.56036 | 16965 ft | 395 kts | 111° |
| 2026-05-06 17:31 | 53.46057 | -1.51636 | 17598 ft | 398 kts | 106° |
| 2026-05-06 17:31 | 53.45264 | -1.47158 | 18202 ft | 402 kts | 106° |
| 2026-05-06 17:31 | 53.44462 | -1.42659 | 18739 ft | 405 kts | 106° |
| 2026-05-06 17:32 | 53.43642 | -1.38107 | 19248 ft | 408 kts | 107° |
| 2026-05-06 17:32 | 53.42813 | -1.33533 | 19756 ft | 411 kts | 107° |
| 2026-05-06 17:32 | 53.41975 | -1.28924 | 20269 ft | 414 kts | 107° |
| 2026-05-06 17:32 | 53.41131 | -1.24293 | 20768 ft | 418 kts | 107° |
| 2026-05-06 17:33 | 53.40292 | -1.19676 | 21255 ft | 421 kts | 107° |
| 2026-05-06 17:33 | 53.39439 | -1.14981 | 21739 ft | 424 kts | 107° |
| 2026-05-06 17:33 | 53.38576 | -1.10243 | 22212 ft | 427 kts | 107° |
| 2026-05-06 17:33 | 53.37702 | -1.05473 | 22683 ft | 430 kts | 107° |
| 2026-05-06 17:34 | 53.36820 | -1.00669 | 23146 ft | 433 kts | 107° |
| 2026-05-06 17:34 | 53.35931 | -0.95834 | 23600 ft | 436 kts | 107° |
| 2026-05-06 17:34 | 53.35033 | -0.90958 | 23982 ft | 439 kts | 107° |
| 2026-05-06 17:34 | 53.34129 | -0.86068 | 24352 ft | 441 kts | 107° |
| 2026-05-06 17:35 | 53.33219 | -0.81156 | 24733 ft | 444 kts | 107° |
| 2026-05-06 17:35 | 53.32297 | -0.76213 | 25100 ft | 446 kts | 108° |
| 2026-05-06 17:35 | 53.31367 | -0.71251 | 25459 ft | 448 kts | 108° |
| 2026-05-06 17:36 | 53.29480 | -0.61250 | 26174 ft | 453 kts | 108° |
| 2026-05-06 17:36 | 53.28533 | -0.56203 | 26534 ft | 456 kts | 108° |
| 2026-05-06 17:36 | 53.27583 | -0.51143 | 26883 ft | 458 kts | 108° |
| 2026-05-06 17:36 | 53.26638 | -0.46123 | 27208 ft | 460 kts | 108° |
| 2026-05-06 17:37 | 53.25658 | -0.40943 | 27543 ft | 463 kts | 108° |
| 2026-05-06 17:37 | 53.24679 | -0.35817 | 27860 ft | 465 kts | 108° |
| 2026-05-06 17:37 | 53.23703 | -0.30728 | 28166 ft | 467 kts | 108° |
| 2026-05-06 17:37 | 53.22709 | -0.25547 | 28476 ft | 469 kts | 108° |
| 2026-05-06 17:38 | 53.21714 | -0.20348 | 28776 ft | 471 kts | 108° |
| 2026-05-06 17:38 | 53.20713 | -0.15124 | 29075 ft | 474 kts | 108° |
| 2026-05-06 17:38 | 53.19704 | -0.09880 | 29370 ft | 476 kts | 109° |
| 2026-05-06 17:38 | 53.18689 | -0.04621 | 29693 ft | 477 kts | 109° |
| 2026-05-06 17:39 | 53.17673 | 0.00638 | 29999 ft | 476 kts | 109° |
| 2026-05-06 17:39 | 53.16656 | 0.05884 | 30456 ft | 473 kts | 109° |
| 2026-05-06 17:39 | 53.15642 | 0.11076 | 30891 ft | 470 kts | 109° |
| 2026-05-06 17:39 | 53.14642 | 0.16182 | 31275 ft | 468 kts | 109° |
| 2026-05-06 17:40 | 53.13634 | 0.21331 | 31640 ft | 467 kts | 109° |
| 2026-05-06 17:40 | 53.12612 | 0.26537 | 32003 ft | 466 kts | 109° |
| 2026-05-06 17:40 | 53.11621 | 0.31571 | 32362 ft | 465 kts | 109° |
| 2026-05-06 17:40 | 53.10614 | 0.36677 | 32728 ft | 464 kts | 109° |
| 2026-05-06 17:41 | 53.09607 | 0.41774 | 33082 ft | 463 kts | 109° |
| 2026-05-06 17:41 | 53.08596 | 0.46849 | 33426 ft | 462 kts | 109° |
| 2026-05-06 17:41 | 53.07583 | 0.51918 | 33790 ft | 461 kts | 109° |
| 2026-05-06 17:41 | 53.06572 | 0.56979 | 34136 ft | 460 kts | 109° |
| 2026-05-06 17:42 | 53.05564 | 0.62025 | 34410 ft | 460 kts | 109° |
| 2026-05-06 17:42 | 53.04555 | 0.67076 | 34679 ft | 460 kts | 109° |
| 2026-05-06 17:42 | 53.03546 | 0.72117 | 34922 ft | 461 kts | 109° |
| 2026-05-06 17:42 | 53.02528 | 0.77169 | 35008 ft | 462 kts | 109° |
| 2026-05-06 17:43 | 53.00471 | 0.87289 | 35012 ft | 463 kts | 110° |
| 2026-05-06 17:43 | 52.98399 | 0.97395 | 35016 ft | 463 kts | 109° |
| 2026-05-06 17:44 | 52.96970 | 1.07825 | 35014 ft | 465 kts | 102° |
| 2026-05-06 17:44 | 52.95776 | 1.18295 | 35012 ft | 465 kts | 102° |
| 2026-05-06 17:45 | 52.94553 | 1.28829 | 35013 ft | 465 kts | 102° |
| 2026-05-06 17:45 | 52.93314 | 1.39363 | 35013 ft | 465 kts | 102° |
| 2026-05-06 17:46 | 52.92065 | 1.49892 | 35018 ft | 465 kts | 102° |
| 2026-05-06 17:46 | 52.90805 | 1.60409 | 35008 ft | 466 kts | 103° |
| 2026-05-06 17:47 | 52.89583 | 1.70596 | 35007 ft | 466 kts | 103° |
| 2026-05-06 17:47 | 52.88317 | 1.81120 | 35008 ft | 466 kts | 103° |
| 2026-05-06 17:48 | 52.87036 | 1.91663 | 35008 ft | 467 kts | 103° |
| 2026-05-06 17:48 | 52.85795 | 2.01696 | 35007 ft | 467 kts | 103° |
| 2026-05-06 17:49 | 52.84483 | 2.12214 | 35008 ft | 467 kts | 103° |
| 2026-05-06 17:49 | 52.83172 | 2.22725 | 35007 ft | 467 kts | 103° |
| 2026-05-06 17:50 | 52.81854 | 2.33238 | 35008 ft | 467 kts | 103° |
| 2026-05-06 17:50 | 52.80524 | 2.43731 | 35007 ft | 467 kts | 103° |
| 2026-05-06 17:51 | 52.79185 | 2.54224 | 35002 ft | 467 kts | 103° |
| 2026-05-06 17:51 | 52.77838 | 2.64653 | 34999 ft | 467 kts | 103° |
| 2026-05-06 17:52 | 52.76478 | 2.75143 | 34999 ft | 467 kts | 103° |
| 2026-05-06 17:52 | 52.75106 | 2.85631 | 35000 ft | 467 kts | 103° |
| 2026-05-06 17:53 | 52.73723 | 2.96121 | 35000 ft | 467 kts | 104° |
| 2026-05-06 17:53 | 52.71692 | 3.06265 | 34970 ft | 465 kts | 113° |
| 2026-05-06 17:54 | 52.69367 | 3.16146 | 34971 ft | 466 kts | 112° |
| 2026-05-06 17:54 | 52.67018 | 3.26104 | 34967 ft | 466 kts | 112° |
| 2026-05-06 17:55 | 52.64654 | 3.36055 | 34969 ft | 466 kts | 112° |
| 2026-05-06 17:55 | 52.62735 | 3.46268 | 34970 ft | 468 kts | 107° |
| 2026-05-06 17:56 | 52.60968 | 3.56568 | 34969 ft | 468 kts | 107° |
| 2026-05-06 17:56 | 52.59188 | 3.66849 | 34963 ft | 468 kts | 107° |
| 2026-05-06 17:57 | 52.57401 | 3.77131 | 34967 ft | 467 kts | 108° |
| 2026-05-06 17:57 | 52.55599 | 3.87399 | 34968 ft | 467 kts | 108° |
| 2026-05-06 17:58 | 52.53785 | 3.97659 | 34960 ft | 468 kts | 108° |
| 2026-05-06 17:58 | 52.51968 | 4.07907 | 34962 ft | 467 kts | 107° |
| 2026-05-06 17:59 | 52.50151 | 4.18129 | 34969 ft | 466 kts | 107° |
| 2026-05-06 17:59 | 52.48330 | 4.28337 | 34955 ft | 466 kts | 108° |
| 2026-05-06 18:00 | 52.46507 | 4.38474 | 34955 ft | 466 kts | 108° |
| 2026-05-06 18:00 | 52.44656 | 4.48657 | 34948 ft | 466 kts | 108° |
| 2026-05-06 18:01 | 52.42805 | 4.58822 | 34933 ft | 465 kts | 108° |
| 2026-05-06 18:01 | 52.40943 | 4.68983 | 34926 ft | 465 kts | 108° |
| 2026-05-06 18:02 | 52.39077 | 4.79116 | 34924 ft | 465 kts | 108° |
| 2026-05-06 18:02 | 52.37203 | 4.89243 | 34925 ft | 465 kts | 108° |
| 2026-05-06 18:03 | 52.35319 | 4.99359 | 34926 ft | 464 kts | 108° |
| 2026-05-06 18:03 | 52.33379 | 5.09422 | 34933 ft | 463 kts | 113° |
| 2026-05-06 18:04 | 52.30690 | 5.18955 | 34933 ft | 461 kts | 117° |
| 2026-05-06 18:04 | 52.27961 | 5.28420 | 34929 ft | 461 kts | 117° |
| 2026-05-06 18:05 | 52.25255 | 5.37834 | 34928 ft | 461 kts | 117° |
| 2026-05-06 18:05 | 52.22527 | 5.47285 | 34926 ft | 460 kts | 117° |
| 2026-05-06 18:06 | 52.19790 | 5.56709 | 34927 ft | 459 kts | 117° |
| 2026-05-06 18:06 | 52.17041 | 5.66090 | 34929 ft | 458 kts | 117° |
| 2026-05-06 18:07 | 52.14283 | 5.75468 | 34489 ft | 460 kts | 117° |
| 2026-05-06 18:07 | 52.12892 | 5.80199 | 33442 ft | 467 kts | 117° |
| 2026-05-06 18:07 | 52.11489 | 5.84977 | 32437 ft | 469 kts | 117° |
| 2026-05-06 18:08 | 52.10078 | 5.89777 | 31460 ft | 471 kts | 117° |
| 2026-05-06 18:08 | 52.08662 | 5.94577 | 30529 ft | 470 kts | 117° |
| 2026-05-06 18:08 | 52.07254 | 5.99345 | 28849 ft | 468 kts | 117° |
| 2026-05-06 18:08 | 52.05855 | 6.04072 | 27097 ft | 470 kts | 117° |
| 2026-05-06 18:09 | 52.04444 | 6.08839 | 25533 ft | 467 kts | 117° |
| 2026-05-06 18:09 | 52.03045 | 6.13555 | 24120 ft | 461 kts | 117° |
| 2026-05-06 18:09 | 52.01661 | 6.18218 | 22689 ft | 456 kts | 116° |
| 2026-05-06 18:09 | 52.00289 | 6.22814 | 21811 ft | 448 kts | 116° |
| 2026-05-06 18:10 | 51.98940 | 6.27312 | 21246 ft | 440 kts | 116° |
| 2026-05-06 18:10 | 51.97603 | 6.31758 | 20616 ft | 435 kts | 116° |
| 2026-05-06 18:10 | 51.96287 | 6.36132 | 20030 ft | 429 kts | 116° |
| 2026-05-06 18:10 | 51.94981 | 6.40452 | 19449 ft | 424 kts | 117° |
| 2026-05-06 18:11 | 51.93687 | 6.44710 | 18912 ft | 418 kts | 117° |
| 2026-05-06 18:11 | 51.92839 | 6.47498 | 18551 ft | 414 kts | 117° |
| 2026-05-06 18:11 | 51.91030 | 6.52928 | 17829 ft | 406 kts | 126° |
| 2026-05-06 18:11 | 51.89231 | 6.56381 | 17312 ft | 397 kts | 137° |
| 2026-05-06 18:12 | 51.87085 | 6.59146 | 16932 ft | 394 kts | 148° |
| 2026-05-06 18:12 | 51.84674 | 6.61214 | 16270 ft | 393 kts | 160° |
| 2026-05-06 18:12 | 51.82094 | 6.62610 | 15736 ft | 388 kts | 163° |
| 2026-05-06 18:12 | 51.79524 | 6.63861 | 15174 ft | 385 kts | 168° |
| 2026-05-06 18:13 | 51.76892 | 6.64575 | 14647 ft | 382 kts | 173° |
| 2026-05-06 18:13 | 51.74265 | 6.65165 | 14098 ft | 380 kts | 173° |
| 2026-05-06 18:13 | 51.71644 | 6.65754 | 13522 ft | 379 kts | 173° |
| 2026-05-06 18:13 | 51.69039 | 6.66340 | 13010 ft | 375 kts | 173° |
| 2026-05-06 18:14 | 51.66455 | 6.66647 | 12838 ft | 375 kts | 185° |
| 2026-05-06 18:14 | 51.63900 | 6.65835 | 12652 ft | 375 kts | 197° |
| 2026-05-06 18:14 | 51.61454 | 6.64742 | 12470 ft | 356 kts | 197° |
| 2026-05-06 18:14 | 51.59110 | 6.63680 | 12281 ft | 343 kts | 197° |
| 2026-05-06 18:15 | 51.56918 | 6.62683 | 12105 ft | 321 kts | 197° |
| 2026-05-06 18:15 | 51.54808 | 6.61725 | 11922 ft | 310 kts | 197° |
| 2026-05-06 18:15 | 51.52743 | 6.60791 | 11743 ft | 308 kts | 197° |
| 2026-05-06 18:15 | 51.50685 | 6.59862 | 11206 ft | 307 kts | 197° |
| 2026-05-06 18:16 | 51.48630 | 6.58932 | 10522 ft | 306 kts | 197° |
| 2026-05-06 18:16 | 51.46588 | 6.58016 | 9880 ft | 304 kts | 197° |
| 2026-05-06 18:16 | 51.45215 | 6.57402 | 9417 ft | 303 kts | 196° |
| 2026-05-06 18:16 | 51.43194 | 6.56501 | 8731 ft | 300 kts | 196° |
| 2026-05-06 18:17 | 51.41195 | 6.55610 | 8068 ft | 297 kts | 196° |
| 2026-05-06 18:17 | 51.39211 | 6.54723 | 7414 ft | 295 kts | 196° |
| 2026-05-06 18:17 | 51.37240 | 6.53841 | 6658 ft | 295 kts | 196° |
| 2026-05-06 18:17 | 51.35271 | 6.52957 | 6008 ft | 292 kts | 196° |
| 2026-05-06 18:18 | 51.33339 | 6.52091 | 5430 ft | 284 kts | 196° |
| 2026-05-06 18:18 | 51.31470 | 6.51260 | 5051 ft | 270 kts | 195° |
| 2026-05-06 18:18 | 51.29731 | 6.50489 | 4998 ft | 250 kts | 196° |
| 2026-05-06 18:18 | 51.28054 | 6.49743 | 4787 ft | 249 kts | 195° |
| 2026-05-06 18:19 | 51.26372 | 6.49204 | 4547 ft | 246 kts | 182° |
| 2026-05-06 18:19 | 51.24677 | 6.49422 | 4270 ft | 244 kts | 165° |
| 2026-05-06 18:19 | 51.23097 | 6.50268 | 3959 ft | 241 kts | 156° |
| 2026-05-06 18:19 | 51.21678 | 6.51632 | 3499 ft | 239 kts | 135° |
| 2026-05-06 18:20 | 51.20700 | 6.53707 | 3112 ft | 230 kts | 111° |
| 2026-05-06 18:20 | 51.20282 | 6.56126 | 2942 ft | 225 kts | 91° |
| 2026-05-06 18:20 | 51.20412 | 6.58574 | 2734 ft | 219 kts | 72° |
| 2026-05-06 18:20 | 51.21020 | 6.60690 | 2484 ft | 205 kts | 52° |
| 2026-05-06 18:21 | 51.21860 | 6.62454 | 2222 ft | 195 kts | 51° |
| 2026-05-06 18:21 | 51.22672 | 6.64144 | 1961 ft | 188 kts | 50° |
| 2026-05-06 18:21 | 51.23441 | 6.65749 | 1730 ft | 176 kts | 50° |
| 2026-05-06 18:21 | 51.24167 | 6.67263 | 1467 ft | 167 kts | 50° |
| 2026-05-06 18:22 | 51.24844 | 6.68679 | 1264 ft | 153 kts | 50° |
| 2026-05-06 18:22 | 51.25461 | 6.69971 | 1058 ft | 141 kts | 49° |
| 2026-05-06 18:22 | 51.26044 | 6.71190 | 809 ft | 137 kts | 50° |
| 2026-05-06 18:22 | 51.26623 | 6.72374 | 701 ft | 134 kts | 49° |
| 2026-05-06 18:23 | 51.27188 | 6.73553 | 506 ft | 133 kts | 51° |
| 2026-05-06 18:23 | 51.27741 | 6.74730 | 357 ft | 131 kts | 50° |
| 2026-05-06 18:23 | 51.28283 | 6.75917 | 145 ft | 132 kts | 39° |
| 2026-05-06 18:23 | 51.28765 | 6.76899 | 126 ft | 87 kts | 45° |
| 2026-05-06 18:24 | 51.29042 | 6.77448 | 126 ft | 47 kts | 53° |
| 2026-05-06 18:24 | 51.29211 | 6.77811 | 133 ft | 36 kts | 54° |
| 2026-05-06 18:24 | 51.29294 | 6.78046 | 138 ft | 15 kts | 83° |
| 2026-05-06 18:24 | 51.29281 | 6.78149 | 138 ft | 6 kts | 116° |
| 2026-05-06 18:25 | 51.29266 | 6.78180 | 137 ft | 4 kts | 130° |
| 2026-05-06 18:25 | 51.29230 | 6.78232 | 137 ft | 9 kts | 141° |
| 2026-05-06 18:25 | 51.29175 | 6.78210 | 136 ft | 11 kts | 222° |
| 2026-05-06 18:25 | 51.29118 | 6.78094 | 133 ft | 14 kts | 232° |
| 2026-05-06 18:26 | 51.29053 | 6.77950 | 129 ft | 17 kts | 230° |
| 2026-05-06 18:26 | 51.28988 | 6.77823 | 126 ft | 10 kts | 232° |
| 2026-05-06 18:26 | 51.28952 | 6.77747 | 128 ft | 7 kts | 232° |
| 2026-05-06 18:26 | 51.28924 | 6.77689 | 125 ft | 6 kts | 233° |
| 2026-05-06 18:27 | 51.28887 | 6.77609 | 128 ft | 13 kts | 233° |
| 2026-05-06 18:27 | 51.28823 | 6.77475 | 128 ft | 15 kts | 232° |
| 2026-05-06 18:27 | 51.28765 | 6.77354 | 127 ft | 13 kts | 233° |
| 2026-05-06 18:27 | 51.28707 | 6.77234 | 128 ft | 13 kts | 232° |
| 2026-05-06 18:28 | 51.28657 | 6.77128 | 124 ft | 11 kts | 232° |
| 2026-05-06 18:28 | 51.28614 | 6.77040 | 128 ft | 9 kts | 232° |
| 2026-05-06 18:28 | 51.28577 | 6.76962 | 128 ft | 10 kts | 234° |
| 2026-05-06 18:28 | 51.28537 | 6.76877 | 123 ft | 9 kts | 233° |
| 2026-05-06 18:29 | 51.28504 | 6.76806 | 126 ft | 8 kts | 232° |
| 2026-05-06 18:29 | 51.28447 | 6.76788 | 121 ft | 8 kts | 158° |
| 2026-05-06 18:29 | 51.28418 | 6.76815 | 123 ft | 0 kts | 147° |
| 2026-05-06 18:29 | 51.28381 | 6.76830 | 125 ft | 15 kts | 184° |
| 2026-05-06 18:30 | 51.28357 | 6.76716 | 126 ft | 9 kts | 266° |
| 2026-05-06 18:30 | 51.28342 | 6.76655 | 121 ft | 4 kts | 234° |
| 2026-05-06 18:30 | 51.28300 | 6.76568 | 123 ft | 14 kts | 233° |
| 2026-05-06 18:30 | 51.28258 | 6.76478 | 124 ft | 7 kts | 233° |
| 2026-05-06 18:31 | 51.28220 | 6.76441 | 126 ft | 7 kts | 192° |
| 2026-05-06 18:31 | 51.28202 | 6.76460 | 123 ft | 2 kts | 115° |
| 2026-05-06 18:31 | 51.28194 | 6.76536 | 128 ft | 7 kts | 96° |
| 2026-05-06 18:31 | 51.28193 | 6.76554 | 128 ft | 0 kts | 96° |